Main page
METAR-TAF:

METAR-TAF

Airports :

Colmenar Viejo, Spain

latitude: 40-39N, longitude: 003-44W, elevation: -999 m

Current weather observation

The report was made 5 hours and 44 minutes ago, at 18:00 UTC
Wind 5 kt from the North
Temperature 33°C
Humidity 14%
Pressure 1021 hPa
Visibility 10 km or more
no clouds below 1500 m and no cumulonimbus

METAR: LECV 051800Z 01005KT CAVOK 33/02 Q1021

Time: 01:44 (23:44 UTC)

Forecast

The report was made 6 hours and 44 minutes ago, at 17:00 UTC
Forecast valid from 05 at 18 UTC to 06 at 03 UTC
Wind 5 kt from variable directions
Visibility 10 km or more
no clouds below 1500 m and no cumulonimbus
Becoming
from 05 at 19 UTC to 05 at 20 UTC
Wind 12 kt from the North/Northeast

TAF: LECV 051700Z 0518/0603 VRB05KT CAVOK BECMG 0519/0520 02012KT

Weather observations and forecasts of more than 4000 airports (METAR and TAF reports).

The available stations are represented by yellow and red dots on the map.

Hover mouse over dot to see the name of the station.

Then click to see weather observations and forecasts.

To change the map : click on the green buttons with a black cross to zoom in, on the green button with a dash to zoom out, or on the green arrows for adjacent maps.


METAR-TAF: